sensor_id;sensor_type;location;lat;lon;timestamp;temperature;humidity
34542;DHT22;20784;51.332;12.410;2023-07-16T00:00:54;21.80;99.90
34542;DHT22;20784;51.332;12.410;2023-07-16T00:03:20;21.80;99.90
34542;DHT22;20784;51.332;12.410;2023-07-16T00:05:49;22.00;99.90
34542;DHT22;20784;51.332;12.410;2023-07-16T00:08:14;21.90;99.90
34542;DHT22;20784;51.332;12.410;2023-07-16T00:10:42;21.90;99.90
34542;DHT22;20784;51.332;12.410;2023-07-16T00:13:07;22.00;99.90
34542;DHT22;20784;51.332;12.410;2023-07-16T00:15:33;21.90;99.90
34542;DHT22;20784;51.332;12.410;2023-07-16T00:17:59;21.90;99.90
34542;DHT22;20784;51.332;12.410;2023-07-16T00:20:24;21.90;99.90
34542;DHT22;20784;51.332;12.410;2023-07-16T00:22:50;21.90;99.90
34542;DHT22;20784;51.332;12.410;2023-07-16T00:25:18;21.80;99.90
34542;DHT22;20784;51.332;12.410;2023-07-16T00:27:47;21.80;99.90
34542;DHT22;20784;51.332;12.410;2023-07-16T00:30:15;21.80;99.90
34542;DHT22;20784;51.332;12.410;2023-07-16T00:32:43;21.80;99.90
34542;DHT22;20784;51.332;12.410;2023-07-16T00:35:08;21.60;99.90
34542;DHT22;20784;51.332;12.410;2023-07-16T00:37:34;21.60;99.90
34542;DHT22;20784;51.332;12.410;2023-07-16T00:40:00;21.60;99.90
34542;DHT22;20784;51.332;12.410;2023-07-16T00:42:26;21.60;99.90
34542;DHT22;20784;51.332;12.410;2023-07-16T00:44:51;21.50;99.90
34542;DHT22;20784;51.332;12.410;2023-07-16T00:47:17;21.60;99.90
34542;DHT22;20784;51.332;12.410;2023-07-16T00:49:42;21.70;99.90
34542;DHT22;20784;51.332;12.410;2023-07-16T00:52:13;21.70;99.90
34542;DHT22;20784;51.332;12.410;2023-07-16T00:54:41;21.70;99.90
34542;DHT22;20784;51.332;12.410;2023-07-16T00:57:07;21.80;99.90
34542;DHT22;20784;51.332;12.410;2023-07-16T00:59:33;21.80;99.90
34542;DHT22;20784;51.332;12.410;2023-07-16T01:01:58;21.90;99.90
34542;DHT22;20784;51.332;12.410;2023-07-16T01:04:24;21.80;99.90
34542;DHT22;20784;51.332;12.410;2023-07-16T01:06:50;21.80;99.90
34542;DHT22;20784;51.332;12.410;2023-07-16T01:09:18;21.80;99.90
34542;DHT22;20784;51.332;12.410;2023-07-16T01:11:44;21.90;99.90
34542;DHT22;20784;51.332;12.410;2023-07-16T01:14:10;22.00;99.90
34542;DHT22;20784;51.332;12.410;2023-07-16T01:16:36;21.90;99.90
34542;DHT22;20784;51.332;12.410;2023-07-16T01:19:01;21.90;99.90
34542;DHT22;20784;51.332;12.410;2023-07-16T01:21:29;22.00;99.90
34542;DHT22;20784;51.332;12.410;2023-07-16T01:29:28;21.80;99.90
34542;DHT22;20784;51.332;12.410;2023-07-16T01:31:55;21.60;99.90
34542;DHT22;20784;51.332;12.410;2023-07-16T01:34:21;21.70;99.90
34542;DHT22;20784;51.332;12.410;2023-07-16T01:36:46;21.70;99.90
34542;DHT22;20784;51.332;12.410;2023-07-16T01:39:12;21.60;99.90
34542;DHT22;20784;51.332;12.410;2023-07-16T01:41:37;21.60;99.90
34542;DHT22;20784;51.332;12.410;2023-07-16T01:44:03;21.70;99.90
34542;DHT22;20784;51.332;12.410;2023-07-16T01:46:28;21.70;99.90
34542;DHT22;20784;51.332;12.410;2023-07-16T01:48:55;21.80;99.90
34542;DHT22;20784;51.332;12.410;2023-07-16T01:51:20;21.80;99.90
34542;DHT22;20784;51.332;12.410;2023-07-16T01:53:48;21.80;99.90
34542;DHT22;20784;51.332;12.410;2023-07-16T01:56:16;21.80;99.90
34542;DHT22;20784;51.332;12.410;2023-07-16T01:58:43;21.70;99.90
34542;DHT22;20784;51.332;12.410;2023-07-16T02:01:08;21.70;99.90
34542;DHT22;20784;51.332;12.410;2023-07-16T02:03:34;21.70;99.90
34542;DHT22;20784;51.332;12.410;2023-07-16T02:05:59;21.70;99.90
34542;DHT22;20784;51.332;12.410;2023-07-16T02:08:25;21.70;99.90
34542;DHT22;20784;51.332;12.410;2023-07-16T02:10:51;21.60;99.90
34542;DHT22;20784;51.332;12.410;2023-07-16T02:13:16;21.60;99.90
34542;DHT22;20784;51.332;12.410;2023-07-16T02:15:42;21.50;99.90
34542;DHT22;20784;51.332;12.410;2023-07-16T02:18:10;21.40;99.90
34542;DHT22;20784;51.332;12.410;2023-07-16T02:20:36;21.20;99.90
34542;DHT22;20784;51.332;12.410;2023-07-16T02:23:01;21.20;99.90
34542;DHT22;20784;51.332;12.410;2023-07-16T02:25:29;21.10;99.90
34542;DHT22;20784;51.332;12.410;2023-07-16T02:27:55;21.20;99.90
34542;DHT22;20784;51.332;12.410;2023-07-16T02:30:21;21.20;99.90
34542;DHT22;20784;51.332;12.410;2023-07-16T02:32:46;21.20;99.90
34542;DHT22;20784;51.332;12.410;2023-07-16T02:35:13;21.20;99.90
34542;DHT22;20784;51.332;12.410;2023-07-16T02:37:38;21.20;99.90
34542;DHT22;20784;51.332;12.410;2023-07-16T02:40:05;21.20;99.90
34542;DHT22;20784;51.332;12.410;2023-07-16T02:42:36;21.20;99.90
34542;DHT22;20784;51.332;12.410;2023-07-16T02:45:02;21.20;99.90
34542;DHT22;20784;51.332;12.410;2023-07-16T02:47:27;21.10;99.90
34542;DHT22;20784;51.332;12.410;2023-07-16T02:49:55;21.10;99.90
34542;DHT22;20784;51.332;12.410;2023-07-16T02:52:21;21.10;99.90
34542;DHT22;20784;51.332;12.410;2023-07-16T02:54:46;21.10;99.90
34542;DHT22;20784;51.332;12.410;2023-07-16T02:57:12;21.10;99.90
34542;DHT22;20784;51.332;12.410;2023-07-16T02:59:40;21.10;99.90
34542;DHT22;20784;51.332;12.410;2023-07-16T03:02:05;21.00;99.90
34542;DHT22;20784;51.332;12.410;2023-07-16T03:04:31;21.00;99.90
34542;DHT22;20784;51.332;12.410;2023-07-16T03:06:56;21.00;99.90
34542;DHT22;20784;51.332;12.410;2023-07-16T03:09:22;20.90;99.90
34542;DHT22;20784;51.332;12.410;2023-07-16T03:11:47;20.90;99.90
34542;DHT22;20784;51.332;12.410;2023-07-16T03:14:13;20.90;99.90
34542;DHT22;20784;51.332;12.410;2023-07-16T03:16:38;21.00;99.90
34542;DHT22;20784;51.332;12.410;2023-07-16T03:19:04;20.90;99.90
34542;DHT22;20784;51.332;12.410;2023-07-16T03:21:29;20.90;99.90
34542;DHT22;20784;51.332;12.410;2023-07-16T03:23:58;20.90;99.90
34542;DHT22;20784;51.332;12.410;2023-07-16T03:26:24;20.80;99.90
34542;DHT22;20784;51.332;12.410;2023-07-16T03:28:50;20.80;99.90
34542;DHT22;20784;51.332;12.410;2023-07-16T03:31:15;20.80;99.90
34542;DHT22;20784;51.332;12.410;2023-07-16T03:33:41;20.90;99.90
34542;DHT22;20784;51.332;12.410;2023-07-16T03:36:06;20.90;99.90
34542;DHT22;20784;51.332;12.410;2023-07-16T03:38:32;20.90;99.90
34542;DHT22;20784;51.332;12.410;2023-07-16T03:40:57;20.90;99.90
34542;DHT22;20784;51.332;12.410;2023-07-16T03:43:23;20.90;99.90
34542;DHT22;20784;51.332;12.410;2023-07-16T03:45:49;21.00;99.90
34542;DHT22;20784;51.332;12.410;2023-07-16T03:48:14;21.00;99.90
34542;DHT22;20784;51.332;12.410;2023-07-16T03:50:40;20.90;99.90
34542;DHT22;20784;51.332;12.410;2023-07-16T03:53:08;20.90;99.90
34542;DHT22;20784;51.332;12.410;2023-07-16T03:55:34;20.90;99.90
34542;DHT22;20784;51.332;12.410;2023-07-16T03:58:03;20.90;99.90
34542;DHT22;20784;51.332;12.410;2023-07-16T04:00:31;21.00;99.90
34542;DHT22;20784;51.332;12.410;2023-07-16T04:02:59;21.00;99.90
34542;DHT22;20784;51.332;12.410;2023-07-16T04:05:27;21.10;99.90
34542;DHT22;20784;51.332;12.410;2023-07-16T04:07:55;21.10;99.90
34542;DHT22;20784;51.332;12.410;2023-07-16T04:10:21;21.10;99.90
34542;DHT22;20784;51.332;12.410;2023-07-16T04:12:49;21.10;99.90
34542;DHT22;20784;51.332;12.410;2023-07-16T04:15:15;21.00;99.90
34542;DHT22;20784;51.332;12.410;2023-07-16T04:17:41;20.90;99.90
34542;DHT22;20784;51.332;12.410;2023-07-16T04:20:09;21.00;99.90
34542;DHT22;20784;51.332;12.410;2023-07-16T04:22:40;21.00;99.90
34542;DHT22;20784;51.332;12.410;2023-07-16T04:25:06;21.10;99.90
34542;DHT22;20784;51.332;12.410;2023-07-16T04:27:35;21.10;99.90
34542;DHT22;20784;51.332;12.410;2023-07-16T04:30:08;21.10;99.90
34542;DHT22;20784;51.332;12.410;2023-07-16T04:32:39;21.10;99.90
34542;DHT22;20784;51.332;12.410;2023-07-16T04:35:05;21.20;99.90
34542;DHT22;20784;51.332;12.410;2023-07-16T04:37:34;21.20;99.90
34542;DHT22;20784;51.332;12.410;2023-07-16T04:39:59;21.20;99.90
34542;DHT22;20784;51.332;12.410;2023-07-16T04:42:25;21.20;99.90
34542;DHT22;20784;51.332;12.410;2023-07-16T04:44:51;21.30;99.90
34542;DHT22;20784;51.332;12.410;2023-07-16T04:47:16;21.30;99.90
34542;DHT22;20784;51.332;12.410;2023-07-16T04:49:44;21.20;99.90
34542;DHT22;20784;51.332;12.410;2023-07-16T04:52:09;21.30;99.90
34542;DHT22;20784;51.332;12.410;2023-07-16T04:54:38;21.40;99.90
34542;DHT22;20784;51.332;12.410;2023-07-16T04:57:11;21.30;99.90
34542;DHT22;20784;51.332;12.410;2023-07-16T04:59:36;21.40;99.90
34542;DHT22;20784;51.332;12.410;2023-07-16T05:02:05;21.40;99.90
34542;DHT22;20784;51.332;12.410;2023-07-16T05:04:32;21.40;99.90
34542;DHT22;20784;51.332;12.410;2023-07-16T05:06:58;21.40;99.90
34542;DHT22;20784;51.332;12.410;2023-07-16T05:09:23;21.40;99.90
34542;DHT22;20784;51.332;12.410;2023-07-16T05:11:49;21.50;99.90
34542;DHT22;20784;51.332;12.410;2023-07-16T05:14:14;21.60;99.90
34542;DHT22;20784;51.332;12.410;2023-07-16T05:16:40;21.60;99.90
34542;DHT22;20784;51.332;12.410;2023-07-16T05:19:05;21.70;99.90
34542;DHT22;20784;51.332;12.410;2023-07-16T05:21:31;21.80;99.90
34542;DHT22;20784;51.332;12.410;2023-07-16T05:23:56;22.00;99.90
34542;DHT22;20784;51.332;12.410;2023-07-16T05:26:22;22.10;99.90
34542;DHT22;20784;51.332;12.410;2023-07-16T05:28:47;22.20;99.90
34542;DHT22;20784;51.332;12.410;2023-07-16T05:31:13;22.30;99.90
34542;DHT22;20784;51.332;12.410;2023-07-16T05:33:38;22.40;99.90
34542;DHT22;20784;51.332;12.410;2023-07-16T05:36:04;22.40;99.90
34542;DHT22;20784;51.332;12.410;2023-07-16T05:38:29;22.40;99.90
34542;DHT22;20784;51.332;12.410;2023-07-16T05:40:59;22.50;99.90
34542;DHT22;20784;51.332;12.410;2023-07-16T05:43:25;22.40;99.90
34542;DHT22;20784;51.332;12.410;2023-07-16T05:45:53;22.40;99.90
34542;DHT22;20784;51.332;12.410;2023-07-16T05:48:18;22.40;99.90
34542;DHT22;20784;51.332;12.410;2023-07-16T05:50:44;22.50;99.90
34542;DHT22;20784;51.332;12.410;2023-07-16T05:53:10;22.40;99.90
34542;DHT22;20784;51.332;12.410;2023-07-16T05:55:36;22.40;99.90
34542;DHT22;20784;51.332;12.410;2023-07-16T05:58:05;22.30;99.90
34542;DHT22;20784;51.332;12.410;2023-07-16T06:00:30;22.30;99.90
34542;DHT22;20784;51.332;12.410;2023-07-16T06:02:56;22.40;99.90
34542;DHT22;20784;51.332;12.410;2023-07-16T06:05:21;22.30;99.90
34542;DHT22;20784;51.332;12.410;2023-07-16T06:07:47;22.40;99.90
34542;DHT22;20784;51.332;12.410;2023-07-16T06:10:13;22.40;99.90
34542;DHT22;20784;51.332;12.410;2023-07-16T06:12:44;22.50;99.90
34542;DHT22;20784;51.332;12.410;2023-07-16T06:15:17;22.50;99.90
34542;DHT22;20784;51.332;12.410;2023-07-16T06:17:44;22.60;99.90
34542;DHT22;20784;51.332;12.410;2023-07-16T06:20:12;22.50;99.90
34542;DHT22;20784;51.332;12.410;2023-07-16T06:22:38;22.40;99.90
34542;DHT22;20784;51.332;12.410;2023-07-16T06:25:03;22.40;99.90
34542;DHT22;20784;51.332;12.410;2023-07-16T06:27:29;22.30;99.90
34542;DHT22;20784;51.332;12.410;2023-07-16T06:29:55;22.30;99.90
34542;DHT22;20784;51.332;12.410;2023-07-16T06:32:21;22.30;99.90
34542;DHT22;20784;51.332;12.410;2023-07-16T06:34:46;22.40;99.90
34542;DHT22;20784;51.332;12.410;2023-07-16T06:37:12;22.50;99.90
34542;DHT22;20784;51.332;12.410;2023-07-16T06:39:40;22.60;99.90
34542;DHT22;20784;51.332;12.410;2023-07-16T06:42:08;22.50;99.90
34542;DHT22;20784;51.332;12.410;2023-07-16T06:44:34;22.50;99.90
34542;DHT22;20784;51.332;12.410;2023-07-16T06:47:00;22.50;99.90
34542;DHT22;20784;51.332;12.410;2023-07-16T06:49:25;22.70;99.90
34542;DHT22;20784;51.332;12.410;2023-07-16T06:51:51;22.70;99.90
34542;DHT22;20784;51.332;12.410;2023-07-16T06:54:16;22.80;99.90
34542;DHT22;20784;51.332;12.410;2023-07-16T06:56:42;22.70;99.90
34542;DHT22;20784;51.332;12.410;2023-07-16T06:59:10;22.80;99.90
34542;DHT22;20784;51.332;12.410;2023-07-16T07:01:35;22.80;99.90
34542;DHT22;20784;51.332;12.410;2023-07-16T07:04:00;22.70;99.90
34542;DHT22;20784;51.332;12.410;2023-07-16T07:06:26;22.80;99.90
34542;DHT22;20784;51.332;12.410;2023-07-16T07:08:52;22.90;99.90
34542;DHT22;20784;51.332;12.410;2023-07-16T07:11:17;23.00;99.90
34542;DHT22;20784;51.332;12.410;2023-07-16T07:13:43;23.10;99.90
34542;DHT22;20784;51.332;12.410;2023-07-16T07:16:11;23.20;99.90
34542;DHT22;20784;51.332;12.410;2023-07-16T07:18:37;23.10;99.90
34542;DHT22;20784;51.332;12.410;2023-07-16T07:21:05;23.20;99.90
34542;DHT22;20784;51.332;12.410;2023-07-16T07:23:30;23.20;99.90
34542;DHT22;20784;51.332;12.410;2023-07-16T07:25:56;23.20;99.90
34542;DHT22;20784;51.332;12.410;2023-07-16T07:28:21;23.30;99.90
34542;DHT22;20784;51.332;12.410;2023-07-16T07:30:47;23.40;99.90
34542;DHT22;20784;51.332;12.410;2023-07-16T07:33:13;23.60;99.90
34542;DHT22;20784;51.332;12.410;2023-07-16T07:35:38;23.70;99.90
34542;DHT22;20784;51.332;12.410;2023-07-16T07:38:04;23.70;99.90
34542;DHT22;20784;51.332;12.410;2023-07-16T07:40:29;23.50;99.90
34542;DHT22;20784;51.332;12.410;2023-07-16T07:42:55;23.50;99.90
34542;DHT22;20784;51.332;12.410;2023-07-16T07:45:20;23.50;99.90
34542;DHT22;20784;51.332;12.410;2023-07-16T07:47:46;23.50;99.90
34542;DHT22;20784;51.332;12.410;2023-07-16T07:50:12;23.60;99.90
34542;DHT22;20784;51.332;12.410;2023-07-16T07:52:47;23.80;99.90
34542;DHT22;20784;51.332;12.410;2023-07-16T07:55:13;23.90;99.90
34542;DHT22;20784;51.332;12.410;2023-07-16T07:57:38;24.20;99.90
34542;DHT22;20784;51.332;12.410;2023-07-16T08:00:04;24.20;99.90
34542;DHT22;20784;51.332;12.410;2023-07-16T08:02:39;24.20;99.90
34542;DHT22;20784;51.332;12.410;2023-07-16T08:05:05;24.20;99.90
34542;DHT22;20784;51.332;12.410;2023-07-16T08:07:34;24.30;99.90
34542;DHT22;20784;51.332;12.410;2023-07-16T08:10:00;24.40;99.90
34542;DHT22;20784;51.332;12.410;2023-07-16T08:12:25;24.50;99.90
34542;DHT22;20784;51.332;12.410;2023-07-16T08:14:51;24.20;99.90
34542;DHT22;20784;51.332;12.410;2023-07-16T08:17:19;24.40;99.90
34542;DHT22;20784;51.332;12.410;2023-07-16T08:19:45;24.60;99.90
34542;DHT22;20784;51.332;12.410;2023-07-16T08:22:13;24.60;99.90
34542;DHT22;20784;51.332;12.410;2023-07-16T08:24:38;24.60;99.90
34542;DHT22;20784;51.332;12.410;2023-07-16T08:27:04;24.70;99.90
34542;DHT22;20784;51.332;12.410;2023-07-16T08:29:29;24.70;99.90
34542;DHT22;20784;51.332;12.410;2023-07-16T08:31:55;24.70;99.90
34542;DHT22;20784;51.332;12.410;2023-07-16T08:34:20;24.80;99.90
34542;DHT22;20784;51.332;12.410;2023-07-16T08:36:48;24.90;99.90
34542;DHT22;20784;51.332;12.410;2023-07-16T08:39:14;25.00;99.90
34542;DHT22;20784;51.332;12.410;2023-07-16T08:41:47;25.00;99.90
34542;DHT22;20784;51.332;12.410;2023-07-16T08:44:13;25.00;99.90
34542;DHT22;20784;51.332;12.410;2023-07-16T08:46:39;25.00;99.90
34542;DHT22;20784;51.332;12.410;2023-07-16T08:49:05;25.10;99.90
34542;DHT22;20784;51.332;12.410;2023-07-16T08:51:34;25.10;99.90
34542;DHT22;20784;51.332;12.410;2023-07-16T08:54:02;25.50;99.90
34542;DHT22;20784;51.332;12.410;2023-07-16T08:56:28;25.40;99.90
34542;DHT22;20784;51.332;12.410;2023-07-16T08:58:54;25.50;99.90
34542;DHT22;20784;51.332;12.410;2023-07-16T09:01:21;25.80;99.90
34542;DHT22;20784;51.332;12.410;2023-07-16T09:03:46;26.00;99.90
34542;DHT22;20784;51.332;12.410;2023-07-16T09:06:15;26.10;99.90
34542;DHT22;20784;51.332;12.410;2023-07-16T09:08:42;26.20;99.90
34542;DHT22;20784;51.332;12.410;2023-07-16T09:11:11;26.60;99.90
34542;DHT22;20784;51.332;12.410;2023-07-16T09:13:43;26.80;99.90
34542;DHT22;20784;51.332;12.410;2023-07-16T09:16:08;26.70;99.90
34542;DHT22;20784;51.332;12.410;2023-07-16T09:18:34;27.00;99.90
34542;DHT22;20784;51.332;12.410;2023-07-16T09:20:59;27.00;99.90
34542;DHT22;20784;51.332;12.410;2023-07-16T09:23:29;27.10;99.90
34542;DHT22;20784;51.332;12.410;2023-07-16T09:25:55;27.30;99.90
34542;DHT22;20784;51.332;12.410;2023-07-16T09:28:21;27.50;99.90
34542;DHT22;20784;51.332;12.410;2023-07-16T09:30:46;27.80;99.90
34542;DHT22;20784;51.332;12.410;2023-07-16T09:33:14;28.30;99.90
34542;DHT22;20784;51.332;12.410;2023-07-16T09:35:39;28.70;99.90
34542;DHT22;20784;51.332;12.410;2023-07-16T09:38:05;28.80;99.90
34542;DHT22;20784;51.332;12.410;2023-07-16T09:40:31;28.70;99.90
34542;DHT22;20784;51.332;12.410;2023-07-16T09:42:56;28.60;99.90
34542;DHT22;20784;51.332;12.410;2023-07-16T09:45:22;28.50;99.90
34542;DHT22;20784;51.332;12.410;2023-07-16T09:47:47;28.60;99.90
34542;DHT22;20784;51.332;12.410;2023-07-16T09:50:13;28.20;99.90
34542;DHT22;20784;51.332;12.410;2023-07-16T09:52:39;28.20;99.20
34542;DHT22;20784;51.332;12.410;2023-07-16T09:55:05;28.10;99.10
34542;DHT22;20784;51.332;12.410;2023-07-16T09:57:34;28.00;98.80
34542;DHT22;20784;51.332;12.410;2023-07-16T10:00:07;28.10;98.90
34542;DHT22;20784;51.332;12.410;2023-07-16T10:02:37;28.30;99.50
34542;DHT22;20784;51.332;12.410;2023-07-16T10:05:16;28.60;98.60
34542;DHT22;20784;51.332;12.410;2023-07-16T10:07:42;28.70;97.90
34542;DHT22;20784;51.332;12.410;2023-07-16T10:10:08;28.80;97.60
34542;DHT22;20784;51.332;12.410;2023-07-16T10:12:34;29.00;96.50
34542;DHT22;20784;51.332;12.410;2023-07-16T10:15:00;28.60;97.00
34542;DHT22;20784;51.332;12.410;2023-07-16T10:17:30;28.60;97.00
34542;DHT22;20784;51.332;12.410;2023-07-16T10:20:14;28.60;97.00
34542;DHT22;20784;51.332;12.410;2023-07-16T10:22:40;28.50;96.70
34542;DHT22;20784;51.332;12.410;2023-07-16T10:25:21;28.60;96.80
34542;DHT22;20784;51.332;12.410;2023-07-16T10:27:47;28.90;96.60
34542;DHT22;20784;51.332;12.410;2023-07-16T10:30:23;28.90;95.90
34542;DHT22;20784;51.332;12.410;2023-07-16T10:32:50;28.40;96.30
34542;DHT22;20784;51.332;12.410;2023-07-16T10:35:16;28.00;96.80
34542;DHT22;20784;51.332;12.410;2023-07-16T10:37:41;28.10;97.30
34542;DHT22;20784;51.332;12.410;2023-07-16T10:40:13;28.70;97.20
34542;DHT22;20784;51.332;12.410;2023-07-16T10:42:40;29.30;96.30
34542;DHT22;20784;51.332;12.410;2023-07-16T10:45:06;29.20;94.80
34542;DHT22;20784;51.332;12.410;2023-07-16T10:47:33;29.10;95.80
34542;DHT22;20784;51.332;12.410;2023-07-16T10:49:59;29.30;95.50
34542;DHT22;20784;51.332;12.410;2023-07-16T10:52:25;28.90;93.90
34542;DHT22;20784;51.332;12.410;2023-07-16T10:54:57;28.40;94.00
34542;DHT22;20784;51.332;12.410;2023-07-16T10:57:25;28.40;94.00
34542;DHT22;20784;51.332;12.410;2023-07-16T10:59:51;28.70;93.90
34542;DHT22;20784;51.332;12.410;2023-07-16T11:02:17;28.80;94.00
34542;DHT22;20784;51.332;12.410;2023-07-16T11:04:46;28.90;93.30
34542;DHT22;20784;51.332;12.410;2023-07-16T11:07:12;28.80;93.10
34542;DHT22;20784;51.332;12.410;2023-07-16T11:09:42;29.00;92.60
34542;DHT22;20784;51.332;12.410;2023-07-16T11:12:16;28.80;93.70
34542;DHT22;20784;51.332;12.410;2023-07-16T11:14:45;29.30;94.10
34542;DHT22;20784;51.332;12.410;2023-07-16T11:17:13;29.60;92.50
34542;DHT22;20784;51.332;12.410;2023-07-16T11:19:39;29.40;92.00
34542;DHT22;20784;51.332;12.410;2023-07-16T11:22:05;28.90;92.90
34542;DHT22;20784;51.332;12.410;2023-07-16T11:27:03;28.90;92.50
34542;DHT22;20784;51.332;12.410;2023-07-16T11:29:33;29.30;91.70
34542;DHT22;20784;51.332;12.410;2023-07-16T11:31:59;29.50;91.20
34542;DHT22;20784;51.332;12.410;2023-07-16T11:34:24;29.50;91.50
34542;DHT22;20784;51.332;12.410;2023-07-16T11:36:50;29.50;90.60
34542;DHT22;20784;51.332;12.410;2023-07-16T11:39:16;29.40;90.30
34542;DHT22;20784;51.332;12.410;2023-07-16T11:41:41;29.00;90.70
34542;DHT22;20784;51.332;12.410;2023-07-16T11:44:07;29.20;91.20
34542;DHT22;20784;51.332;12.410;2023-07-16T11:46:33;29.00;91.40
34542;DHT22;20784;51.332;12.410;2023-07-16T11:48:59;29.30;90.50
34542;DHT22;20784;51.332;12.410;2023-07-16T11:51:25;29.50;91.60
34542;DHT22;20784;51.332;12.410;2023-07-16T11:53:51;29.90;89.60
34542;DHT22;20784;51.332;12.410;2023-07-16T11:56:19;30.10;88.30
34542;DHT22;20784;51.332;12.410;2023-07-16T11:58:45;29.90;88.10
34542;DHT22;20784;51.332;12.410;2023-07-16T12:01:11;30.10;87.90
34542;DHT22;20784;51.332;12.410;2023-07-16T12:03:36;29.90;87.50
34542;DHT22;20784;51.332;12.410;2023-07-16T12:06:02;29.90;86.60
34542;DHT22;20784;51.332;12.410;2023-07-16T12:08:27;29.70;87.20
34542;DHT22;20784;51.332;12.410;2023-07-16T12:10:54;29.60;87.50
34542;DHT22;20784;51.332;12.410;2023-07-16T12:13:20;29.40;87.20
34542;DHT22;20784;51.332;12.410;2023-07-16T12:15:45;29.50;87.70
34542;DHT22;20784;51.332;12.410;2023-07-16T12:18:11;29.30;87.70
34542;DHT22;20784;51.332;12.410;2023-07-16T12:20:37;29.90;88.80
34542;DHT22;20784;51.332;12.410;2023-07-16T12:23:03;30.50;86.20
34542;DHT22;20784;51.332;12.410;2023-07-16T12:25:31;30.60;84.00
34542;DHT22;20784;51.332;12.410;2023-07-16T12:27:57;30.60;82.90
34542;DHT22;20784;51.332;12.410;2023-07-16T12:30:25;30.10;82.90
34542;DHT22;20784;51.332;12.410;2023-07-16T12:32:50;30.00;81.10
34542;DHT22;20784;51.332;12.410;2023-07-16T12:35:16;29.80;81.70
34542;DHT22;20784;51.332;12.410;2023-07-16T12:37:41;29.90;82.60
34542;DHT22;20784;51.332;12.410;2023-07-16T12:40:07;30.20;82.70
34542;DHT22;20784;51.332;12.410;2023-07-16T12:42:32;30.70;81.90
34542;DHT22;20784;51.332;12.410;2023-07-16T12:44:58;30.90;80.10
34542;DHT22;20784;51.332;12.410;2023-07-16T12:47:24;30.20;79.50
34542;DHT22;20784;51.332;12.410;2023-07-16T12:49:49;29.90;79.10
34542;DHT22;20784;51.332;12.410;2023-07-16T12:52:15;29.40;79.40
34542;DHT22;20784;51.332;12.410;2023-07-16T12:54:40;29.50;80.20
34542;DHT22;20784;51.332;12.410;2023-07-16T12:59:19;29.60;78.60
34542;DHT22;20784;51.332;12.410;2023-07-16T13:01:44;29.70;79.10
34542;DHT22;20784;51.332;12.410;2023-07-16T13:04:10;30.00;79.30
34542;DHT22;20784;51.332;12.410;2023-07-16T13:06:35;30.40;79.40
34542;DHT22;20784;51.332;12.410;2023-07-16T13:09:01;30.40;79.70
34542;DHT22;20784;51.332;12.410;2023-07-16T13:11:27;30.20;79.90
34542;DHT22;20784;51.332;12.410;2023-07-16T13:13:52;30.20;80.40
34542;DHT22;20784;51.332;12.410;2023-07-16T13:16:18;30.30;79.10
34542;DHT22;20784;51.332;12.410;2023-07-16T13:18:44;30.30;78.60
34542;DHT22;20784;51.332;12.410;2023-07-16T13:21:10;30.20;78.40
34542;DHT22;20784;51.332;12.410;2023-07-16T13:23:38;30.30;78.60
34542;DHT22;20784;51.332;12.410;2023-07-16T13:26:07;29.70;79.30
34542;DHT22;20784;51.332;12.410;2023-07-16T13:28:33;29.70;78.30
34542;DHT22;20784;51.332;12.410;2023-07-16T13:30:58;29.50;78.00
34542;DHT22;20784;51.332;12.410;2023-07-16T13:33:24;29.20;78.60
34542;DHT22;20784;51.332;12.410;2023-07-16T13:35:50;29.40;80.00
34542;DHT22;20784;51.332;12.410;2023-07-16T13:38:15;29.60;80.10
34542;DHT22;20784;51.332;12.410;2023-07-16T13:40:41;29.80;80.50
34542;DHT22;20784;51.332;12.410;2023-07-16T13:43:10;29.70;80.30
34542;DHT22;20784;51.332;12.410;2023-07-16T13:45:35;29.70;80.50
34542;DHT22;20784;51.332;12.410;2023-07-16T13:48:01;29.50;80.70
34542;DHT22;20784;51.332;12.410;2023-07-16T13:50:27;29.40;81.20
34542;DHT22;20784;51.332;12.410;2023-07-16T13:52:52;29.10;80.90
34542;DHT22;20784;51.332;12.410;2023-07-16T13:55:18;29.00;82.30
34542;DHT22;20784;51.332;12.410;2023-07-16T13:57:43;29.10;82.40
34542;DHT22;20784;51.332;12.410;2023-07-16T14:00:09;29.30;81.20
34542;DHT22;20784;51.332;12.410;2023-07-16T14:02:36;29.40;80.60
34542;DHT22;20784;51.332;12.410;2023-07-16T14:05:02;29.30;79.80
34542;DHT22;20784;51.332;12.410;2023-07-16T14:07:28;29.40;79.90
34542;DHT22;20784;51.332;12.410;2023-07-16T14:09:54;29.30;80.10
34542;DHT22;20784;51.332;12.410;2023-07-16T14:12:22;29.40;80.00
34542;DHT22;20784;51.332;12.410;2023-07-16T14:14:47;29.20;80.00
34542;DHT22;20784;51.332;12.410;2023-07-16T14:17:13;29.20;80.80
34542;DHT22;20784;51.332;12.410;2023-07-16T14:19:38;29.00;81.90
34542;DHT22;20784;51.332;12.410;2023-07-16T14:22:04;28.90;82.40
34542;DHT22;20784;51.332;12.410;2023-07-16T14:24:30;28.60;83.10
34542;DHT22;20784;51.332;12.410;2023-07-16T14:26:58;28.40;84.00
34542;DHT22;20784;51.332;12.410;2023-07-16T14:29:25;28.50;84.50
34542;DHT22;20784;51.332;12.410;2023-07-16T14:31:52;28.60;84.70
34542;DHT22;20784;51.332;12.410;2023-07-16T14:34:18;28.90;84.90
34542;DHT22;20784;51.332;12.410;2023-07-16T14:36:44;29.20;82.80
34542;DHT22;20784;51.332;12.410;2023-07-16T14:39:09;29.30;82.00
34542;DHT22;20784;51.332;12.410;2023-07-16T14:41:35;29.50;80.40
34542;DHT22;20784;51.332;12.410;2023-07-16T14:44:01;29.10;79.30
34542;DHT22;20784;51.332;12.410;2023-07-16T14:46:26;29.00;79.70
34542;DHT22;20784;51.332;12.410;2023-07-16T14:48:52;28.90;79.20
34542;DHT22;20784;51.332;12.410;2023-07-16T14:51:21;28.70;79.10
34542;DHT22;20784;51.332;12.410;2023-07-16T14:53:46;28.40;80.00
34542;DHT22;20784;51.332;12.410;2023-07-16T14:56:12;28.50;80.10
34542;DHT22;20784;51.332;12.410;2023-07-16T14:58:37;28.60;79.50
34542;DHT22;20784;51.332;12.410;2023-07-16T15:01:03;28.40;79.40
34542;DHT22;20784;51.332;12.410;2023-07-16T15:03:35;28.40;80.00
34542;DHT22;20784;51.332;12.410;2023-07-16T15:06:05;28.40;79.10
34542;DHT22;20784;51.332;12.410;2023-07-16T15:08:30;28.30;78.30
34542;DHT22;20784;51.332;12.410;2023-07-16T15:10:59;28.40;79.20
34542;DHT22;20784;51.332;12.410;2023-07-16T15:13:25;28.40;79.00
34542;DHT22;20784;51.332;12.410;2023-07-16T15:15:52;28.60;79.20
34542;DHT22;20784;51.332;12.410;2023-07-16T15:18:19;28.50;78.60
34542;DHT22;20784;51.332;12.410;2023-07-16T15:20:46;28.30;78.50